Time;durP1;ratioP1;P1;durP2;ratioP2;P2;SDS_P1;SDS_P2;PMS_P1;PMS_P2;Temp;Humidity;BMP_temperature;BMP_pressure;BME280_temperature;BME280_humidity;BME280_pressure;Samples;Min_cycle;Max_cycle;Signal;HPM_P1;HPM_P2
2022/01/23 00:00:05;;;;;;;3.47;1.80;;;;;;;;;;5051068;28;20048;-81
2022/01/23 00:02:34;;;;;;;2.72;2.00;;;;;;;;;;5052696;28;20511;-81
2022/01/23 00:05:06;;;;;;;2.72;1.50;;;;;;;;;;5053679;28;20033;-80
2022/01/23 00:07:33;;;;;;;3.63;2.20;;;;;;;;;;5054797;28;20024;-80
2022/01/23 00:10:00;;;;;;;2.40;1.98;;;;;;;;;;5056410;28;20390;-80
2022/01/23 00:12:28;;;;;;;4.95;2.08;;;;;;;;;;5052723;28;20063;-79
2022/01/23 00:17:37;;;;;;;1.35;1.23;;;;;;;;;;5056898;28;20368;-81
2022/01/23 00:20:06;;;;;;;3.42;1.98;;;;;;;;;;5060569;28;20028;-79
2022/01/23 00:22:42;;;;;;;2.03;1.23;;;;;;;;;;5051330;28;20028;-79
2022/01/23 00:30:40;;;;;;;3.13;2.15;;;;;;;;;;5057626;28;20036;-80
2022/01/23 00:33:07;;;;;;;2.85;2.08;;;;;;;;;;5057621;28;20041;-81
2022/01/23 00:35:34;;;;;;;10.40;3.30;;;;;;;;;;5060567;28;20037;-82
2022/01/23 00:38:01;;;;;;;3.25;1.42;;;;;;;;;;5054503;28;20528;-81
2022/01/23 00:40:28;;;;;;;3.45;2.28;;;;;;;;;;5062299;28;20056;-81
2022/01/23 00:42:55;;;;;;;4.35;2.88;;;;;;;;;;5059405;28;20519;-81
2022/01/23 00:45:34;;;;;;;5.05;2.70;;;;;;;;;;5059271;28;20029;-80
2022/01/23 00:48:07;;;;;;;3.60;2.38;;;;;;;;;;5057882;28;20028;-80
2022/01/23 00:50:38;;;;;;;5.70;2.58;;;;;;;;;;5057181;28;20033;-80
2022/01/23 00:53:10;;;;;;;3.15;1.63;;;;;;;;;;5059806;28;20042;-82
2022/01/23 00:55:41;;;;;;;4.20;2.45;;;;;;;;;;5053379;28;20028;-80
2022/01/23 00:58:08;;;;;;;3.63;2.28;;;;;;;;;;5058358;28;20091;-78
2022/01/23 01:00:33;;;;;;;3.78;2.03;;;;;;;;;;5064068;28;20063;-79
2022/01/23 01:02:59;;;;;;;2.13;1.40;;;;;;;;;;5050606;28;20076;-80
2022/01/23 01:05:28;;;;;;;3.40;1.92;;;;;;;;;;5055217;28;20032;-79
2022/01/23 01:07:58;;;;;;;3.25;2.15;;;;;;;;;;5053417;28;20442;-81
2022/01/23 01:10:33;;;;;;;3.38;2.03;;;;;;;;;;5053797;28;20104;-79
2022/01/23 01:13:00;;;;;;;2.55;1.73;;;;;;;;;;5060554;28;20378;-78
2022/01/23 01:31:56;;;;;;;3.67;2.30;;;;;;;;;;5057976;28;20062;-80
2022/01/23 01:34:32;;;;;;;4.10;2.20;;;;;;;;;;5054235;28;20108;-79
2022/01/23 01:36:58;;;;;;;2.83;1.45;;;;;;;;;;5047871;28;20039;-80
2022/01/23 01:39:26;;;;;;;6.13;2.08;;;;;;;;;;5057493;28;20112;-81
2022/01/23 01:41:52;;;;;;;4.88;3.05;;;;;;;;;;5057450;28;20024;-78
2022/01/23 01:44:19;;;;;;;3.70;2.33;;;;;;;;;;5052858;28;20384;-79
2022/01/23 01:46:45;;;;;;;2.90;2.33;;;;;;;;;;5053112;28;20033;-81
2022/01/23 01:49:12;;;;;;;4.57;2.67;;;;;;;;;;5062919;28;20033;-80
2022/01/23 01:51:38;;;;;;;8.65;4.45;;;;;;;;;;5053497;28;20425;-80
2022/01/23 01:54:11;;;;;;;9.30;4.50;;;;;;;;;;5052634;28;20035;-79
2022/01/23 01:56:49;;;;;;;3.20;2.28;;;;;;;;;;5050119;28;20026;-81
2022/01/23 02:00:12;;;;;;;4.93;2.70;;;;;;;;;;5056086;28;20033;-80
2022/01/23 02:09:56;;;;;;;5.30;3.35;;;;;;;;;;5049439;28;20035;-79
2022/01/23 02:13:02;;;;;;;6.93;2.88;;;;;;;;;;5054251;28;20025;-79
2022/01/23 02:15:38;;;;;;;5.15;3.08;;;;;;;;;;5051528;28;20542;-79
2022/01/23 02:55:49;;;;;;;4.55;3.17;;;;;;;;;;5064241;28;20052;-80
2022/01/23 02:58:21;;;;;;;6.78;4.15;;;;;;;;;;5059237;28;20040;-80
2022/01/23 03:00:49;;;;;;;3.40;2.50;;;;;;;;;;5052313;28;20465;-81
2022/01/23 03:03:22;;;;;;;6.03;2.97;;;;;;;;;;5060634;28;20083;-80
2022/01/23 03:06:11;;;;;;;4.10;2.67;;;;;;;;;;5051791;28;20033;-80
2022/01/23 03:09:02;;;;;;;4.75;3.08;;;;;;;;;;5061477;28;20043;-78
2022/01/23 03:12:02;;;;;;;4.30;3.08;;;;;;;;;;5051678;28;20053;-79
2022/01/23 03:32:44;;;;;;;3.28;2.58;;;;;;;;;;5053117;28;20029;-80
2022/01/23 03:35:05;;;;;;;5.97;2.95;;;;;;;;;;5052873;28;20143;-80
2022/01/23 03:37:31;;;;;;;4.50;2.78;;;;;;;;;;5059078;28;20565;-79
2022/01/23 03:39:56;;;;;;;3.97;2.75;;;;;;;;;;5059263;28;20032;-80
2022/01/23 03:42:23;;;;;;;6.30;2.83;;;;;;;;;;5066918;28;20044;-81
2022/01/23 03:45:10;;;;;;;6.22;3.83;;;;;;;;;;5059400;28;20049;-80
2022/01/23 03:47:40;;;;;;;6.88;3.97;;;;;;;;;;5057262;28;20017;-79
2022/01/23 03:50:10;;;;;;;4.13;2.63;;;;;;;;;;5053831;28;20504;-79
2022/01/23 03:52:36;;;;;;;6.45;3.78;;;;;;;;;;5056094;28;20025;-79
2022/01/23 03:55:04;;;;;;;4.75;3.50;;;;;;;;;;5059589;28;20033;-80
2022/01/23 03:57:30;;;;;;;5.25;3.15;;;;;;;;;;5052270;28;20025;-79
2022/01/23 03:59:55;;;;;;;6.43;3.83;;;;;;;;;;5055001;28;20029;-78
2022/01/23 04:02:21;;;;;;;6.07;3.58;;;;;;;;;;5053794;28;20028;-79
2022/01/23 04:04:47;;;;;;;5.32;2.72;;;;;;;;;;5053787;28;20032;-79
2022/01/23 04:07:20;;;;;;;6.85;2.88;;;;;;;;;;5049725;28;20143;-80
2022/01/23 04:09:47;;;;;;;5.47;3.03;;;;;;;;;;5059249;28;20025;-79
2022/01/23 04:13:00;;;;;;;9.25;5.82;;;;;;;;;;5050345;28;20514;-80
2022/01/23 04:15:44;;;;;;;6.20;4.07;;;;;;;;;;5055079;28;20051;-80
2022/01/23 04:34:17;;;;;;;8.45;6.40;;;;;;;;;;5051822;28;20079;-80
2022/01/23 05:01:28;;;;;;;4.38;2.50;;;;;;;;;;5052077;28;20094;-79
2022/01/23 05:06:29;;;;;;;7.30;3.00;;;;;;;;;;5046795;28;20029;-79
2022/01/23 05:08:55;;;;;;;3.60;2.35;;;;;;;;;;5049310;28;20036;-79
2022/01/23 05:11:20;;;;;;;5.57;3.05;;;;;;;;;;5049570;28;20045;-79
2022/01/23 05:13:46;;;;;;;4.45;2.13;;;;;;;;;;5051374;28;20060;-79
2022/01/23 05:16:12;;;;;;;6.63;4.70;;;;;;;;;;5049691;28;21799;-79
2022/01/23 05:18:39;;;;;;;6.00;2.45;;;;;;;;;;5052254;28;20056;-79
2022/01/23 05:21:31;;;;;;;8.63;3.45;;;;;;;;;;5043296;28;20080;-80
2022/01/23 05:23:52;;;;;;;4.78;3.65;;;;;;;;;;5053553;28;20095;-80
2022/01/23 05:26:18;;;;;;;5.28;2.45;;;;;;;;;;5058144;28;20111;-79
2022/01/23 05:28:43;;;;;;;8.27;6.20;;;;;;;;;;5062317;28;20520;-80
2022/01/23 05:31:09;;;;;;;5.57;3.50;;;;;;;;;;5049175;28;20025;-79
2022/01/23 05:33:35;;;;;;;3.90;2.05;;;;;;;;;;5048228;28;20021;-79
2022/01/23 05:36:00;;;;;;;4.28;2.53;;;;;;;;;;5050578;28;20435;-79
2022/01/23 05:38:26;;;;;;;4.75;3.15;;;;;;;;;;5047787;28;20067;-80
2022/01/23 05:40:57;;;;;;;5.10;2.75;;;;;;;;;;5052022;28;20029;-79
2022/01/23 05:43:23;;;;;;;5.65;3.03;;;;;;;;;;5046482;28;20059;-80
2022/01/23 05:45:49;;;;;;;21.20;9.20;;;;;;;;;;5048924;28;20424;-79
2022/01/23 05:48:15;;;;;;;15.73;8.88;;;;;;;;;;5048340;28;20080;-79
2022/01/23 05:50:41;;;;;;;7.80;4.45;;;;;;;;;;5043726;28;20037;-79
2022/01/23 05:53:06;;;;;;;4.75;2.75;;;;;;;;;;5045431;28;20041;-78
2022/01/23 05:55:32;;;;;;;8.25;4.07;;;;;;;;;;5042717;28;20059;-79
2022/01/23 05:57:57;;;;;;;6.30;4.22;;;;;;;;;;5053878;28;20024;-80
2022/01/23 06:00:23;;;;;;;7.50;5.30;;;;;;;;;;5042301;28;20025;-79
2022/01/23 06:02:48;;;;;;;5.93;4.05;;;;;;;;;;5049374;28;20453;-82
2022/01/23 06:05:14;;;;;;;10.80;5.32;;;;;;;;;;5055130;28;20037;-80
2022/01/23 06:07:41;;;;;;;5.32;3.15;;;;;;;;;;5040366;28;20508;-79
2022/01/23 06:10:07;;;;;;;5.05;3.35;;;;;;;;;;5047803;28;20541;-79
2022/01/23 06:12:33;;;;;;;4.68;2.42;;;;;;;;;;5049486;28;20384;-79
2022/01/23 06:14:58;;;;;;;2.88;1.95;;;;;;;;;;5044398;28;20025;-81
2022/01/23 06:17:24;;;;;;;5.68;2.88;;;;;;;;;;5052815;28;20051;-79
2022/01/23 06:19:50;;;;;;;6.88;3.63;;;;;;;;;;5049692;28;20056;-82
2022/01/23 06:22:16;;;;;;;3.38;2.55;;;;;;;;;;5045256;28;20032;-80
2022/01/23 06:24:47;;;;;;;4.00;2.85;;;;;;;;;;5046301;28;20064;-80
2022/01/23 06:27:13;;;;;;;7.55;4.15;;;;;;;;;;5040148;28;20033;-79
2022/01/23 06:29:43;;;;;;;6.85;4.45;;;;;;;;;;5046921;28;20033;-79
2022/01/23 06:32:09;;;;;;;6.57;3.47;;;;;;;;;;5045332;28;20116;-79
2022/01/23 06:34:35;;;;;;;6.68;4.43;;;;;;;;;;5048487;28;20143;-80
2022/01/23 06:37:00;;;;;;;8.02;4.68;;;;;;;;;;5050519;28;20029;-78
2022/01/23 06:39:26;;;;;;;8.93;3.47;;;;;;;;;;5048042;28;20025;-79
2022/01/23 06:41:51;;;;;;;5.35;2.65;;;;;;;;;;5045129;28;20098;-79
2022/01/23 06:44:18;;;;;;;7.57;4.75;;;;;;;;;;5048128;28;20443;-78
2022/01/23 06:46:43;;;;;;;7.22;3.90;;;;;;;;;;5047701;28;20112;-77
2022/01/23 06:49:10;;;;;;;5.93;3.83;;;;;;;;;;5041743;28;20139;-77
2022/01/23 06:51:36;;;;;;;11.32;6.55;;;;;;;;;;5040436;28;20025;-79
2022/01/23 06:54:02;;;;;;;11.30;5.78;;;;;;;;;;5035217;28;20469;-80
2022/01/23 06:56:28;;;;;;;9.90;5.30;;;;;;;;;;5047454;28;20037;-79
2022/01/23 06:58:54;;;;;;;8.90;4.85;;;;;;;;;;5048216;28;20025;-78
2022/01/23 07:01:20;;;;;;;8.15;4.10;;;;;;;;;;5049690;28;20036;-78
2022/01/23 07:03:45;;;;;;;6.20;3.35;;;;;;;;;;5051720;28;20026;-78
2022/01/23 07:06:11;;;;;;;7.55;4.55;;;;;;;;;;5048284;28;20060;-78
2022/01/23 07:08:36;;;;;;;8.13;4.82;;;;;;;;;;5049586;28;20098;-79
2022/01/23 07:11:02;;;;;;;8.05;4.40;;;;;;;;;;5045332;28;20075;-79
2022/01/23 07:13:27;;;;;;;8.60;4.88;;;;;;;;;;5034783;28;20477;-78
2022/01/23 07:15:53;;;;;;;9.80;5.65;;;;;;;;;;5050900;28;20107;-79
2022/01/23 07:18:19;;;;;;;8.13;5.32;;;;;;;;;;5046965;28;20037;-80
2022/01/23 07:20:45;;;;;;;11.63;7.70;;;;;;;;;;5045668;28;20040;-80
2022/01/23 07:23:12;;;;;;;12.27;9.30;;;;;;;;;;5044035;28;20489;-78
2022/01/23 07:25:39;;;;;;;9.55;6.25;;;;;;;;;;5051935;28;20094;-79
2022/01/23 07:28:09;;;;;;;11.73;7.72;;;;;;;;;;5044627;28;20027;-77
2022/01/23 07:33:00;;;;;;;5.75;3.97;;;;;;;;;;5052272;28;20028;-80
2022/01/23 07:35:26;;;;;;;8.90;5.43;;;;;;;;;;5052234;28;20105;-79
2022/01/23 07:37:51;;;;;;;6.65;4.57;;;;;;;;;;5048762;28;20036;-81
2022/01/23 07:40:19;;;;;;;10.55;6.97;;;;;;;;;;5045877;28;20040;-79
2022/01/23 07:42:44;;;;;;;17.40;8.85;;;;;;;;;;5039926;28;20454;-79
2022/01/23 07:45:10;;;;;;;7.97;4.72;;;;;;;;;;5049353;28;20089;-79
2022/01/23 07:47:35;;;;;;;11.35;6.85;;;;;;;;;;5044004;28;20155;-80
2022/01/23 07:50:03;;;;;;;11.57;6.05;;;;;;;;;;5049774;28;20033;-77
2022/01/23 07:52:30;;;;;;;8.63;5.35;;;;;;;;;;5047682;28;20047;-78
2022/01/23 07:54:57;;;;;;;9.05;5.13;;;;;;;;;;5041844;28;20140;-79
2022/01/23 07:57:22;;;;;;;10.98;5.25;;;;;;;;;;5053865;28;20044;-79
2022/01/23 07:59:48;;;;;;;9.77;5.53;;;;;;;;;;5043127;28;20033;-78
2022/01/23 08:02:14;;;;;;;10.00;6.50;;;;;;;;;;5049749;28;20033;-78
2022/01/23 08:04:40;;;;;;;8.13;3.83;;;;;;;;;;5050728;28;20040;-77
2022/01/23 08:07:19;;;;;;;9.13;5.18;;;;;;;;;;5049743;28;20021;-80
2022/01/23 08:09:45;;;;;;;;;;;;;;;;;;5055163;28;20033;-78
2022/01/23 08:12:10;;;;;;;8.15;3.95;;;;;;;;;;5051987;28;19913;-80
2022/01/23 08:14:36;;;;;;;8.02;5.25;;;;;;;;;;5046705;28;20112;-81
2022/01/23 08:17:01;;;;;;;8.70;5.35;;;;;;;;;;5049715;28;20053;-79
2022/01/23 08:19:27;;;;;;;6.65;3.58;;;;;;;;;;5045983;28;20044;-79
2022/01/23 08:21:52;;;;;;;13.35;7.85;;;;;;;;;;5053595;28;20036;-80
2022/01/23 08:24:18;;;;;;;17.38;7.50;;;;;;;;;;5045456;28;20033;-80
2022/01/23 08:26:43;;;;;;;12.18;7.03;;;;;;;;;;5048942;28;20598;-79
2022/01/23 08:29:10;;;;;;;8.48;4.35;;;;;;;;;;5047297;28;20152;-78
2022/01/23 08:31:35;;;;;;;8.30;4.95;;;;;;;;;;5046625;28;20029;-78
2022/01/23 08:34:01;;;;;;;9.10;5.03;;;;;;;;;;5052224;28;20119;-78
2022/01/23 08:36:26;;;;;;;10.27;6.47;;;;;;;;;;5046885;28;20479;-78
2022/01/23 08:38:52;;;;;;;10.13;5.60;;;;;;;;;;5045810;28;20021;-79
2022/01/23 08:43:49;;;;;;;10.23;4.72;;;;;;;;;;5050472;28;20060;-81
2022/01/23 08:46:15;;;;;;;8.85;4.47;;;;;;;;;;5055104;28;20036;-79
2022/01/23 08:48:41;;;;;;;12.18;6.68;;;;;;;;;;5052552;28;20028;-79
2022/01/23 08:51:08;;;;;;;12.68;6.95;;;;;;;;;;5045295;28;20075;-80
2022/01/23 08:53:33;;;;;;;11.00;5.65;;;;;;;;;;5044534;28;20101;-79
2022/01/23 08:55:59;;;;;;;14.45;5.05;;;;;;;;;;5046976;28;20452;-79
2022/01/23 08:58:26;;;;;;;12.77;6.65;;;;;;;;;;5049275;28;20846;-79
2022/01/23 09:00:51;;;;;;;7.90;4.65;;;;;;;;;;5047619;28;20036;-79
2022/01/23 09:03:16;;;;;;;7.93;3.50;;;;;;;;;;5046879;28;20253;-79
2022/01/23 09:05:42;;;;;;;10.13;5.65;;;;;;;;;;5051585;28;20029;-80
2022/01/23 09:08:08;;;;;;;11.30;6.55;;;;;;;;;;5041582;28;20058;-79
2022/01/23 09:10:41;;;;;;;7.53;4.82;;;;;;;;;;5048698;28;20025;-78
2022/01/23 09:13:14;;;;;;;10.32;4.75;;;;;;;;;;5047885;28;20028;-78
2022/01/23 09:15:39;;;;;;;4.82;2.83;;;;;;;;;;5049012;28;20028;-78
2022/01/23 09:18:05;;;;;;;7.35;3.30;;;;;;;;;;5046645;28;20401;-81
2022/01/23 09:20:31;;;;;;;7.25;5.35;;;;;;;;;;5054183;28;20028;-80
2022/01/23 09:22:56;;;;;;;7.05;4.28;;;;;;;;;;5050863;28;20031;-79
2022/01/23 09:25:22;;;;;;;8.90;4.88;;;;;;;;;;5044793;28;20025;-79
2022/01/23 09:27:48;;;;;;;11.68;5.28;;;;;;;;;;5050321;28;20105;-79
2022/01/23 09:30:19;;;;;;;9.82;6.68;;;;;;;;;;5045294;28;20052;-80
2022/01/23 09:32:49;;;;;;;7.50;5.32;;;;;;;;;;5042248;28;20032;-81
2022/01/23 09:35:15;;;;;;;8.70;4.72;;;;;;;;;;5045879;28;20057;-80
2022/01/23 09:37:42;;;;;;;11.07;4.20;;;;;;;;;;5048759;28;20454;-80
2022/01/23 09:40:09;;;;;;;9.98;4.82;;;;;;;;;;5056648;28;20047;-83
2022/01/23 09:42:41;;;;;;;11.48;5.68;;;;;;;;;;5049657;28;20028;-82
2022/01/23 09:45:09;;;;;;;5.65;3.90;;;;;;;;;;5058212;28;20112;-81
2022/01/23 09:47:37;;;;;;;11.23;5.13;;;;;;;;;;5046100;28;20068;-80
2022/01/23 09:50:04;;;;;;;6.28;3.45;;;;;;;;;;5056570;28;20100;-82
2022/01/23 09:52:33;;;;;;;8.60;4.93;;;;;;;;;;5059948;28;20028;-81
2022/01/23 09:55:06;;;;;;;12.05;6.65;;;;;;;;;;5050393;28;20055;-79
2022/01/23 09:57:33;;;;;;;5.90;3.92;;;;;;;;;;5051551;28;20029;-81
2022/01/23 10:00:02;;;;;;;5.05;3.60;;;;;;;;;;5053003;28;20027;-81
2022/01/23 10:02:31;;;;;;;9.40;5.57;;;;;;;;;;5044706;28;20024;-78
2022/01/23 10:04:56;;;;;;;9.18;5.18;;;;;;;;;;5039742;28;20036;-79
2022/01/23 10:07:22;;;;;;;9.45;4.85;;;;;;;;;;5049879;28;20400;-78
2022/01/23 10:09:54;;;;;;;10.05;5.50;;;;;;;;;;5035791;28;20101;-80
2022/01/23 10:12:30;;;;;;;14.68;6.75;;;;;;;;;;5041012;28;20044;-81
2022/01/23 10:14:59;;;;;;;6.50;4.03;;;;;;;;;;5045796;28;20029;-81
2022/01/23 10:17:24;;;;;;;9.63;6.00;;;;;;;;;;5035998;28;20053;-80
2022/01/23 10:19:50;;;;;;;8.70;4.35;;;;;;;;;;5051783;28;20872;-79
2022/01/23 10:22:16;;;;;;;6.50;4.25;;;;;;;;;;5051645;28;20107;-80
2022/01/23 10:24:42;;;;;;;9.70;4.90;;;;;;;;;;5037418;28;20044;-79
2022/01/23 10:27:08;;;;;;;7.10;4.30;;;;;;;;;;5052088;28;20029;-79
2022/01/23 10:29:37;;;;;;;10.85;5.45;;;;;;;;;;5037490;28;20522;-80
2022/01/23 10:32:21;;;;;;;7.28;4.80;;;;;;;;;;5040494;28;20025;-78
2022/01/23 10:35:02;;;;;;;7.22;5.13;;;;;;;;;;5046547;28;20210;-79
2022/01/23 10:37:40;;;;;;;9.73;5.88;;;;;;;;;;5040166;28;20043;-80
2022/01/23 10:40:11;;;;;;;9.07;4.53;;;;;;;;;;5037800;28;20030;-79
2022/01/23 10:48:11;;;;;;;5.03;3.53;;;;;;;;;;5039404;28;20036;-79
2022/01/23 10:50:37;;;;;;;6.93;3.90;;;;;;;;;;5039749;28;20029;-78
2022/01/23 10:53:02;;;;;;;8.32;4.55;;;;;;;;;;5041990;28;20031;-78
2022/01/23 10:55:35;;;;;;;4.75;3.70;;;;;;;;;;5052663;28;20032;-77
2022/01/23 10:58:06;;;;;;;5.07;3.90;;;;;;;;;;5046604;28;20033;-77
2022/01/23 11:00:39;;;;;;;4.43;3.35;;;;;;;;;;5051591;28;20044;-78
2022/01/23 11:03:20;;;;;;;6.25;4.93;;;;;;;;;;5045430;28;20405;-81
2022/01/23 11:05:48;;;;;;;5.32;2.60;;;;;;;;;;5047348;28;20095;-78
2022/01/23 11:08:25;;;;;;;4.90;3.30;;;;;;;;;;5050394;28;20466;-78
2022/01/23 11:10:56;;;;;;;5.43;3.90;;;;;;;;;;5052372;28;20038;-79
2022/01/23 11:19:27;;;;;;;9.63;5.00;;;;;;;;;;5050827;28;20060;-79
2022/01/23 11:21:54;;;;;;;9.68;5.72;;;;;;;;;;5047046;28;20124;-81
2022/01/23 11:24:33;;;;;;;9.13;6.15;;;;;;;;;;5044471;28;20502;-81
2022/01/23 11:27:00;;;;;;;11.25;5.30;;;;;;;;;;5048317;28;20430;-80
2022/01/23 11:29:25;;;;;;;8.52;4.97;;;;;;;;;;5057959;28;20058;-78
2022/01/23 11:31:51;;;;;;;8.80;4.90;;;;;;;;;;5046192;28;20033;-78
2022/01/23 11:34:21;;;;;;;9.48;6.38;;;;;;;;;;5049544;28;20036;-77
2022/01/23 11:36:46;;;;;;;9.18;4.43;;;;;;;;;;5051233;28;20074;-78
2022/01/23 11:39:28;;;;;;;6.63;3.25;;;;;;;;;;5047610;28;20447;-77
2022/01/23 11:56:28;;;;;;;5.82;3.50;;;;;;;;;;5046228;28;20044;-78
2022/01/23 11:59:18;;;;;;;8.50;5.28;;;;;;;;;;5050228;28;20053;-79
2022/01/23 12:01:46;;;;;;;6.50;3.75;;;;;;;;;;5051824;28;20024;-80
2022/01/23 12:04:21;;;;;;;8.20;5.20;;;;;;;;;;5046712;28;20098;-79
2022/01/23 12:07:08;;;;;;;6.57;4.55;;;;;;;;;;5044977;28;20025;-78
2022/01/23 12:09:34;;;;;;;5.97;3.63;;;;;;;;;;5048472;28;20508;-79
2022/01/23 12:12:05;;;;;;;8.88;5.85;;;;;;;;;;5052643;28;20104;-79
2022/01/23 12:17:13;;;;;;;7.55;3.17;;;;;;;;;;5053170;28;20067;-79
2022/01/23 12:19:54;;;;;;;8.95;4.55;;;;;;;;;;5047062;28;20059;-78
2022/01/23 12:22:26;;;;;;;7.93;3.00;;;;;;;;;;5050026;28;20362;-78
2022/01/23 12:24:56;;;;;;;8.30;4.57;;;;;;;;;;5054670;28;20033;-80
2022/01/23 12:27:28;;;;;;;9.10;5.22;;;;;;;;;;5041556;28;20032;-77
2022/01/23 12:30:10;;;;;;;13.73;5.03;;;;;;;;;;5044211;28;20070;-80
2022/01/23 12:32:36;;;;;;;8.45;5.30;;;;;;;;;;5045909;28;20030;-80
2022/01/23 12:35:05;;;;;;;8.00;4.22;;;;;;;;;;5052082;28;20035;-79
2022/01/23 12:38:09;;;;;;;7.25;4.82;;;;;;;;;;5043944;28;20021;-79
2022/01/23 12:40:46;;;;;;;9.38;5.10;;;;;;;;;;5031222;28;20065;-78
2022/01/23 12:43:18;;;;;;;6.18;3.55;;;;;;;;;;5048975;28;20033;-78
2022/01/23 12:46:01;;;;;;;28.52;4.35;;;;;;;;;;5056473;28;20143;-79
2022/01/23 12:48:26;;;;;;;8.50;4.63;;;;;;;;;;5050061;28;20472;-79
2022/01/23 12:51:28;;;;;;;11.93;6.18;;;;;;;;;;5055399;28;20036;-79
2022/01/23 12:53:53;;;;;;;10.32;5.35;;;;;;;;;;5045342;28;20485;-78
2022/01/23 12:56:24;;;;;;;7.88;4.10;;;;;;;;;;5054502;28;20059;-80
2022/01/23 12:58:55;;;;;;;8.50;4.85;;;;;;;;;;5049082;28;20024;-78
2022/01/23 13:01:24;;;;;;;10.50;4.68;;;;;;;;;;5053474;28;20090;-78
2022/01/23 13:04:00;;;;;;;6.40;3.15;;;;;;;;;;5052069;28;20025;-78
2022/01/23 13:06:29;;;;;;;10.55;6.65;;;;;;;;;;5046779;28;20032;-79
2022/01/23 13:09:17;;;;;;;13.77;7.53;;;;;;;;;;5048764;28;20476;-79
2022/01/23 13:31:47;;;;;;;4.70;3.40;;;;;;;;;;5056392;28;20041;-80
2022/01/23 13:34:28;;;;;;;8.45;5.43;;;;;;;;;;5046825;28;20037;-82
2022/01/23 13:37:26;;;;;;;6.68;4.63;;;;;;;;;;5052115;28;20388;-79
2022/01/23 13:40:04;;;;;;;7.03;4.25;;;;;;;;;;5050067;28;20057;-79
2022/01/23 14:04:19;;;;;;;4.85;4.10;;;;;;;;;;5051294;28;20052;-80
2022/01/23 14:06:45;;;;;;;8.93;4.57;;;;;;;;;;5050814;28;20149;-79
2022/01/23 14:09:13;;;;;;;13.57;6.88;;;;;;;;;;5047063;28;20374;-78
2022/01/23 14:11:40;;;;;;;20.02;9.65;;;;;;;;;;5046006;28;20052;-79
2022/01/23 14:14:17;;;;;;;10.70;5.72;;;;;;;;;;5049180;28;20037;-79
2022/01/23 14:16:44;;;;;;;6.63;4.28;;;;;;;;;;5051719;28;20390;-79
2022/01/23 14:19:25;;;;;;;13.32;7.82;;;;;;;;;;5047990;28;20704;-78
2022/01/23 14:21:54;;;;;;;18.55;8.35;;;;;;;;;;5055199;28;20106;-79
2022/01/23 14:24:21;;;;;;;33.88;14.25;;;;;;;;;;5046256;28;20404;-79
2022/01/23 14:27:06;;;;;;;18.42;6.97;;;;;;;;;;5051361;28;20154;-78
2022/01/23 14:29:45;;;;;;;14.07;5.60;;;;;;;;;;5048788;28;20032;-79
2022/01/23 14:32:20;;;;;;;13.37;5.33;;;;;;;;;;5053343;28;20465;-77
2022/01/23 14:34:46;;;;;;;15.77;9.65;;;;;;;;;;5050572;28;20039;-77
2022/01/23 14:37:12;;;;;;;19.02;10.48;;;;;;;;;;5055610;28;20049;-78
2022/01/23 14:39:38;;;;;;;25.75;15.52;;;;;;;;;;5046340;28;20945;-79
2022/01/23 14:42:18;;;;;;;10.45;6.75;;;;;;;;;;5047323;28;20029;-78
2022/01/23 14:44:44;;;;;;;15.00;8.32;;;;;;;;;;5043253;28;20128;-78
2022/01/23 14:47:10;;;;;;;23.73;13.98;;;;;;;;;;5056007;28;20116;-78
2022/01/23 14:49:37;;;;;;;12.00;6.70;;;;;;;;;;5046098;28;20060;-78
2022/01/23 14:52:09;;;;;;;14.60;8.15;;;;;;;;;;5054872;28;20105;-78
2022/01/23 14:54:35;;;;;;;14.00;7.95;;;;;;;;;;5043319;28;20025;-79
2022/01/23 14:57:03;;;;;;;7.32;4.65;;;;;;;;;;5045514;28;20021;-80
2022/01/23 14:59:31;;;;;;;11.77;7.97;;;;;;;;;;5053172;28;20375;-81
2022/01/23 15:01:56;;;;;;;10.32;5.57;;;;;;;;;;5053283;28;20431;-79
2022/01/23 15:07:16;;;;;;;16.40;8.75;;;;;;;;;;5046696;28;20045;-78
2022/01/23 15:09:44;;;;;;;18.10;12.18;;;;;;;;;;5048737;28;20119;-78
2022/01/23 15:12:10;;;;;;;12.05;6.97;;;;;;;;;;5049118;28;20393;-80
2022/01/23 15:14:36;;;;;;;18.20;12.18;;;;;;;;;;5047250;28;20032;-79
2022/01/23 15:17:01;;;;;;;16.90;9.43;;;;;;;;;;5045557;28;20179;-79
2022/01/23 15:19:27;;;;;;;16.75;9.40;;;;;;;;;;5050284;28;20033;-80
2022/01/23 15:21:52;;;;;;;19.23;10.18;;;;;;;;;;5046521;28;20032;-80
2022/01/23 15:24:17;;;;;;;12.50;7.82;;;;;;;;;;5050918;28;20033;-81
2022/01/23 15:26:43;;;;;;;12.88;6.68;;;;;;;;;;5054581;28;20082;-77
2022/01/23 15:29:09;;;;;;;10.65;5.10;;;;;;;;;;5059801;28;20032;-80
2022/01/23 15:31:37;;;;;;;12.18;8.18;;;;;;;;;;5048665;28;20055;-80
2022/01/23 15:34:03;;;;;;;12.27;7.20;;;;;;;;;;5048787;28;20025;-81
2022/01/23 15:36:29;;;;;;;12.48;7.18;;;;;;;;;;5052739;28;20551;-82
2022/01/23 15:38:55;;;;;;;10.77;6.13;;;;;;;;;;5049447;28;20028;-79
2022/01/23 15:41:20;;;;;;;16.77;11.30;;;;;;;;;;5052431;28;20032;-80
2022/01/23 15:43:46;;;;;;;16.92;8.38;;;;;;;;;;5049148;28;20033;-78
2022/01/23 15:46:13;;;;;;;17.05;9.88;;;;;;;;;;5052048;28;20075;-80
2022/01/23 15:48:39;;;;;;;8.27;5.30;;;;;;;;;;5053106;28;20504;-80
2022/01/23 15:51:05;;;;;;;14.70;7.28;;;;;;;;;;5051402;28;20048;-79
2022/01/23 15:53:31;;;;;;;9.55;5.32;;;;;;;;;;5044514;28;20039;-80
2022/01/23 15:55:56;;;;;;;9.45;5.65;;;;;;;;;;5051872;28;20036;-80
2022/01/23 15:58:22;;;;;;;9.68;5.45;;;;;;;;;;5060390;28;20036;-81
2022/01/23 16:00:48;;;;;;;9.95;5.68;;;;;;;;;;5052642;28;20021;-80
2022/01/23 16:03:14;;;;;;;10.13;5.72;;;;;;;;;;5056535;28;20029;-80
2022/01/23 16:05:39;;;;;;;10.07;5.22;;;;;;;;;;5049367;28;20025;-80
2022/01/23 16:08:05;;;;;;;8.93;5.20;;;;;;;;;;5049517;28;20055;-80
2022/01/23 16:10:30;;;;;;;10.18;6.18;;;;;;;;;;5052262;28;20060;-79
2022/01/23 16:12:56;;;;;;;10.40;6.10;;;;;;;;;;5051392;28;20090;-80
2022/01/23 16:15:22;;;;;;;11.65;7.65;;;;;;;;;;5051476;28;20146;-79
2022/01/23 16:17:49;;;;;;;12.23;6.93;;;;;;;;;;5050061;28;20397;-79
2022/01/23 16:20:17;;;;;;;14.80;6.97;;;;;;;;;;5045808;28;20056;-79
2022/01/23 16:22:44;;;;;;;11.93;6.72;;;;;;;;;;5047931;28;20040;-79
2022/01/23 16:25:11;;;;;;;14.00;7.78;;;;;;;;;;5050126;28;20036;-79
2022/01/23 16:27:38;;;;;;;12.45;7.45;;;;;;;;;;5048390;28;20025;-79
2022/01/23 16:30:08;;;;;;;23.23;12.05;;;;;;;;;;5052605;28;20089;-79
2022/01/23 16:32:34;;;;;;;18.85;8.07;;;;;;;;;;5053616;28;20067;-80
2022/01/23 16:34:59;;;;;;;13.68;7.70;;;;;;;;;;5057560;28;20074;-77
2022/01/23 16:37:25;;;;;;;6.93;3.88;;;;;;;;;;5053395;28;20021;-79
2022/01/23 16:39:50;;;;;;;10.25;5.00;;;;;;;;;;5053031;28;20040;-79
2022/01/23 16:42:19;;;;;;;12.20;7.38;;;;;;;;;;5046751;28;20500;-79
2022/01/23 16:44:45;;;;;;;5.05;3.60;;;;;;;;;;5051471;28;20028;-78
2022/01/23 16:47:12;;;;;;;12.65;5.22;;;;;;;;;;5050704;28;20029;-77
2022/01/23 16:49:38;;;;;;;9.70;5.13;;;;;;;;;;5049518;28;20508;-79
2022/01/23 16:52:04;;;;;;;9.05;5.53;;;;;;;;;;5053708;28;20082;-78
2022/01/23 16:54:30;;;;;;;8.93;5.18;;;;;;;;;;5056275;28;20473;-79
2022/01/23 16:56:56;;;;;;;11.73;8.07;;;;;;;;;;5052088;28;20025;-78
2022/01/23 16:59:21;;;;;;;9.68;4.63;;;;;;;;;;5055450;28;20036;-81
2022/01/23 17:01:47;;;;;;;10.60;5.63;;;;;;;;;;5052673;28;20475;-79
2022/01/23 17:04:16;;;;;;;12.10;9.15;;;;;;;;;;5051892;28;20146;-80
2022/01/23 17:06:42;;;;;;;5.55;4.10;;;;;;;;;;5050336;28;20037;-79
2022/01/23 17:09:09;;;;;;;10.63;6.57;;;;;;;;;;5055959;28;20044;-78
2022/01/23 17:11:35;;;;;;;9.00;6.10;;;;;;;;;;5052112;28;20033;-80
2022/01/23 17:14:01;;;;;;;8.98;5.93;;;;;;;;;;5048118;28;20040;-80
2022/01/23 17:16:32;;;;;;;8.43;4.85;;;;;;;;;;5052924;28;20045;-80
2022/01/23 17:18:58;;;;;;;9.23;6.22;;;;;;;;;;5051036;28;20032;-79
2022/01/23 17:21:24;;;;;;;11.00;5.88;;;;;;;;;;5059301;28;20519;-80
2022/01/23 17:23:50;;;;;;;11.68;5.15;;;;;;;;;;5057426;28;20040;-81
2022/01/23 17:26:17;;;;;;;14.50;7.65;;;;;;;;;;5049934;28;20091;-79
2022/01/23 17:28:42;;;;;;;16.30;8.52;;;;;;;;;;5046289;28;20040;-77
2022/01/23 17:31:08;;;;;;;21.50;11.43;;;;;;;;;;5056561;28;20028;-80
2022/01/23 17:33:33;;;;;;;16.45;8.20;;;;;;;;;;5047209;28;20032;-80
2022/01/23 17:35:59;;;;;;;20.50;9.98;;;;;;;;;;5049354;28;20155;-80
2022/01/23 17:38:25;;;;;;;18.30;10.27;;;;;;;;;;5060632;28;20415;-79
2022/01/23 17:40:51;;;;;;;14.35;7.40;;;;;;;;;;5048390;28;20480;-77
2022/01/23 17:43:16;;;;;;;12.38;9.10;;;;;;;;;;5047826;28;20118;-80
2022/01/23 17:45:53;;;;;;;20.40;10.07;;;;;;;;;;5060802;28;20036;-78
2022/01/23 17:51:02;;;;;;;9.30;5.05;;;;;;;;;;5052988;28;20029;-80
2022/01/23 17:53:30;;;;;;;10.65;6.05;;;;;;;;;;5048992;28;20465;-80
2022/01/23 17:55:55;;;;;;;18.25;8.82;;;;;;;;;;5057516;28;20052;-78
2022/01/23 17:58:21;;;;;;;11.88;6.63;;;;;;;;;;5053178;28;20076;-78
2022/01/23 18:00:47;;;;;;;14.75;9.35;;;;;;;;;;5047859;28;20025;-78
2022/01/23 18:03:16;;;;;;;11.70;7.50;;;;;;;;;;5056501;28;20047;-79
2022/01/23 18:05:44;;;;;;;15.77;10.60;;;;;;;;;;5060198;28;20122;-77
2022/01/23 18:08:10;;;;;;;11.48;7.75;;;;;;;;;;5052132;28;20033;-80
2022/01/23 18:10:36;;;;;;;10.10;6.13;;;;;;;;;;5048074;28;20113;-80
2022/01/23 18:13:04;;;;;;;15.63;8.57;;;;;;;;;;5050656;28;20507;-78
2022/01/23 18:15:29;;;;;;;21.67;9.43;;;;;;;;;;5053743;28;20036;-80
2022/01/23 18:17:55;;;;;;;19.98;8.55;;;;;;;;;;5051523;28;20037;-78
2022/01/23 18:20:20;;;;;;;15.13;7.43;;;;;;;;;;5046801;28;20409;-80